Home   Weather   Romania   Timișoara   Past weeks
Flag for Romania

Past Weather in Timișoara, Romania — Yesterday and Last 2 Weeks

Currently: 45 °F. Passing clouds. (Weather station: Timisoara Airport, Romania). See more current weather

Past Weather in Timișoara — Graph

°F

Timișoara Temperature Yesterday

Maximum temperature yesterday: 43 °F (at 2:00 pm)
Minimum temperature yesterday: 27 °F (at 11:00 pm)
Average temperature yesterday: 35 °F

High & Low Weather Summary for the Past Weeks

 TemperatureHumidityPressure
High66 °F (Feb 25, 2:30 pm)100% (Feb 20, 6:00 pm)30.63 "Hg (Feb 20, 6:00 pm)
Low19 °F (Mar 7, 6:30 am)27% (Mar 7, 4:30 pm)29.95 "Hg (Mar 5, 3:30 am)
Average41 °F83%30.38 "Hg
* Reported Feb 20 4:00 pm — Mar 7 4:30 pm, Timișoara. Weather by CustomWeather, © 2021

Note: Actual official high and low records may vary slightly from our data, if they occured in-between our weather recording intervals... More about our weather records

Timișoara Weather History for the Previous 24 Hours

Scroll right to see more
 ConditionsComfort  
Time TempWeatherWind HumidityBarometerVisibility
4:30 pm
Sun, Mar 7
46 °FSunny.2 mph27%30.18 "Hg10 mi
4:00 pm45 °FSunny.2 mph31%30.21 "Hg10 mi
3:30 pm46 °FPassing clouds.3 mph29%30.21 "HgN/A
3:00 pm46 °FCool.3 mph29%30.24 "HgN/A
2:30 pm46 °FSunny.3 mph32%30.24 "Hg10 mi
2:00 pm45 °FPassing clouds.3 mph31%30.27 "HgN/A
1:30 pm43 °FPassing clouds.5 mph31%30.30 "HgN/A
1:00 pm41 °FPassing clouds.3 mph36%30.30 "HgN/A
12:30 pm43 °FPassing clouds.5 mph36%30.33 "HgN/A
12:00 pm43 °FSunny.1 mph34%30.33 "Hg10 mi
11:30 am41 °FSunny.3 mph42%30.36 "Hg10 mi
11:00 am39 °FSunny.3 mph48%30.36 "Hg10 mi
10:30 am37 °FSunny.5 mph52%30.36 "Hg10 mi
10:00 am34 °FSunny.6 mph70%30.39 "Hg10 mi
9:30 am32 °FSunny.8 mph75%30.39 "Hg10 mi
9:00 am28 °FSunny.9 mph93%30.39 "Hg10 mi
8:30 am27 °FSunny.6 mph93%30.39 "Hg10 mi
8:00 am25 °FSunny.6 mph93%30.42 "Hg10 mi
7:30 am21 °FSunny.6 mph93%30.42 "Hg10 mi
7:00 am21 °FClear.5 mph100%30.42 "Hg10 mi
6:30 am19 °FClear.3 mph100%30.42 "Hg10 mi
6:00 am21 °FClear.3 mph93%30.42 "Hg10 mi
5:30 am21 °FClear.2 mph100%30.42 "Hg10 mi
4:30 am21 °FClear.7 mph100%30.42 "Hg10 mi
4:00 am23 °FClear.6 mph93%30.42 "Hg10 mi
3:30 am21 °FClear.7 mph100%30.45 "Hg10 mi
2:30 am23 °FClear.5 mph93%30.45 "Hg10 mi
2:00 am23 °FClear.7 mph93%30.45 "Hg10 mi
1:30 am25 °FClear.3 mph86%30.45 "Hg10 mi
1:00 am25 °FClear.1 mph93%30.45 "Hg10 mi
12:30 am25 °FClear.3 mph93%30.45 "Hg10 mi
12:00 am25 °FClear.6 mph93%30.48 "Hg10 mi
11:30 pm
Sat, Mar 6
27 °FClear.3 mph86%30.48 "Hg10 mi
11:00 pm27 °FClear.1 mph86%30.48 "Hg10 mi
10:30 pm28 °FClear.2 mph80%30.48 "Hg10 mi
10:00 pm30 °FClear.1 mph75%30.48 "Hg10 mi
9:30 pm28 °FClear.5 mph80%30.48 "Hg10 mi
9:00 pm28 °FClear.7 mph86%30.45 "Hg10 mi
8:30 pm30 °FClear.5 mph75%30.45 "Hg10 mi
8:00 pm30 °FClear.7 mph80%30.45 "Hg10 mi
7:30 pm32 °FClear.8 mph69%30.45 "Hg10 mi
7:00 pm36 °FPassing clouds.7 mph56%30.45 "HgN/A
6:30 pm39 °FClear.10 mph48%30.45 "Hg10 mi
6:00 pm39 °FSunny.9 mph42%30.42 "Hg10 mi
5:30 pm41 °FSunny.9 mph42%30.42 "Hg10 mi
5:00 pm41 °FSunny.10 mph39%30.42 "Hg10 mi
Weather by CustomWeather, © 2021

See weather overview